Time;durP1;ratioP1;P1;durP2;ratioP2;P2;SDS_P1;SDS_P2;PMS_P1;PMS_P2;Temp;Humidity;BMP_temperature;BMP_pressure;BME280_temperature;BME280_humidity;BME280_pressure;Samples;Min_cycle;Max_cycle;Signal;HPM_P1;HPM_P2
2020/12/26 00:01:43;;;;;;;;;;;4.40;78.80;;;;;;4734736;30;19972;-88
2020/12/26 00:04:09;;;;;;;;;;;4.40;78.80;;;;;;4719086;30;19926;-87
2020/12/26 00:06:34;;;;;;;;;;;4.40;78.80;;;;;;4704778;30;19919;-88
2020/12/26 00:09:00;;;;;;;;;;;4.40;78.80;;;;;;4734686;30;19918;-88
2020/12/26 00:11:25;;;;;;;;;;;4.40;78.80;;;;;;4733763;30;19919;-88
2020/12/26 00:13:51;;;;;;;;;;;4.40;78.80;;;;;;4704902;30;19918;-88
2020/12/26 00:16:17;;;;;;;;;;;4.40;78.80;;;;;;4733559;30;19919;-88
2020/12/26 00:18:43;;;;;;;;;;;4.40;78.80;;;;;;4732728;30;19952;-88
2020/12/26 00:21:10;;;;;;;;;;;4.40;78.80;;;;;;4731480;30;19922;-88
2020/12/26 00:23:35;;;;;;;;;;;4.40;78.80;;;;;;4717511;30;19923;-88
2020/12/26 00:26:01;;;;;;;;;;;4.40;78.80;;;;;;4717375;30;19918;-88
2020/12/26 00:28:27;;;;;;;;;;;4.40;78.80;;;;;;4718233;30;20009;-88
2020/12/26 00:30:52;;;;;;;;;;;4.40;78.80;;;;;;4718223;30;19918;-88
2020/12/26 00:33:17;;;;;;;;;;;4.30;78.80;;;;;;4718213;30;19926;-88
2020/12/26 00:35:43;;;;;;;;;;;4.30;78.80;;;;;;4718251;30;19929;-88
2020/12/26 00:38:08;;;;;;;;;;;4.30;78.80;;;;;;4717935;30;19929;-88
2020/12/26 00:40:34;;;;;;;;;;;4.30;78.80;;;;;;4704040;30;19919;-88
2020/12/26 00:42:59;;;;;;;;;;;4.30;78.80;;;;;;4703241;30;19923;-89
2020/12/26 00:45:25;;;;;;;;;;;4.30;78.80;;;;;;4703804;30;20029;-88
2020/12/26 00:47:50;;;;;;;;;;;4.30;78.80;;;;;;4703566;30;19922;-88
2020/12/26 00:50:16;;;;;;;;;;;4.20;78.80;;;;;;4717703;30;19926;-88
2020/12/26 00:52:41;;;;;;;;;;;4.20;78.90;;;;;;4717892;30;20459;-88
2020/12/26 00:55:07;;;;;;;;;;;4.20;78.90;;;;;;4702904;30;20000;-88
2020/12/26 00:57:35;;;;;;;;;;;4.20;78.90;;;;;;4718171;30;20005;-89
2020/12/26 01:00:02;;;;;;;;;;;4.30;78.90;;;;;;4719567;30;20014;-88
2020/12/26 01:02:28;;;;;;;;;;;4.20;78.90;;;;;;4721278;30;19918;-88
2020/12/26 01:04:53;;;;;;;;;;;4.20;79.00;;;;;;4706671;30;19918;-89
2020/12/26 01:07:18;;;;;;;;;;;4.10;79.10;;;;;;4736887;30;19929;-88
2020/12/26 01:09:44;;;;;;;;;;;4.10;79.30;;;;;;4706474;30;19918;-82
2020/12/26 01:12:09;;;;;;;;;;;4.10;79.40;;;;;;4720049;30;19969;-82
2020/12/26 01:14:35;;;;;;;;;;;4.10;79.50;;;;;;4720290;30;20332;-82
2020/12/26 01:17:00;;;;;;;;;;;4.10;79.50;;;;;;4705481;30;20510;-82
2020/12/26 01:19:27;;;;;;;;;;;4.10;79.50;;;;;;4720215;30;19922;-81
2020/12/26 01:21:53;;;;;;;;;;;4.10;79.40;;;;;;4720233;30;20428;-82
2020/12/26 01:24:19;;;;;;;;;;;4.10;79.40;;;;;;4719832;30;20018;-82
2020/12/26 01:26:45;;;;;;;;;;;4.10;79.30;;;;;;4720045;30;19921;-82
2020/12/26 01:29:10;;;;;;;;;;;4.10;79.20;;;;;;4735586;30;19958;-82
2020/12/26 01:31:36;;;;;;;;;;;4.20;79.40;;;;;;4720007;30;19989;-82
2020/12/26 01:34:01;;;;;;;;;;;4.20;79.50;;;;;;4705306;30;19952;-81
2020/12/26 01:36:27;;;;;;;;;;;4.20;79.70;;;;;;4705246;30;19929;-82
2020/12/26 01:38:53;;;;;;;;;;;4.10;79.80;;;;;;4719881;30;20374;-82
2020/12/26 01:41:18;;;;;;;;;;;4.20;79.80;;;;;;4719585;30;19995;-82
2020/12/26 01:43:57;;;;;;;;;;;4.20;79.80;;;;;;4719818;30;19925;-82
2020/12/26 01:46:25;;;;;;;;;;;4.20;79.70;;;;;;4719675;30;19915;-82
2020/12/26 01:48:50;;;;;;;;;;;4.20;79.70;;;;;;4735543;30;19950;-81
2020/12/26 01:51:16;;;;;;;;;;;4.20;79.60;;;;;;4719132;30;20016;-81
2020/12/26 01:53:42;;;;;;;;;;;4.20;79.60;;;;;;4719392;30;20331;-81
2020/12/26 01:56:08;;;;;;;;;;;4.20;79.60;;;;;;4735042;30;20293;-81
2020/12/26 01:58:34;;;;;;;;;;;4.20;79.50;;;;;;4705059;30;20013;-81
2020/12/26 02:01:00;;;;;;;;;;;4.20;79.50;;;;;;4719037;30;19918;-81
2020/12/26 02:03:25;;;;;;;;;;;4.30;79.50;;;;;;4719656;30;20047;-81
2020/12/26 02:05:52;;;;;;;;;;;4.30;79.50;;;;;;4719203;30;20419;-81
2020/12/26 02:08:17;;;;;;;;;;;4.30;79.40;;;;;;4719085;30;19926;-81
2020/12/26 02:10:43;;;;;;;;;;;4.30;79.40;;;;;;4718486;30;20286;-81
2020/12/26 02:13:09;;;;;;;;;;;4.30;79.40;;;;;;4704514;30;19923;-81
2020/12/26 02:15:34;;;;;;;;;;;4.30;79.30;;;;;;4719145;30;20413;-81
2020/12/26 02:18:00;;;;;;;;;;;4.30;79.30;;;;;;4704146;30;19933;-81
2020/12/26 02:20:25;;;;;;;;;;;4.30;79.30;;;;;;4704672;30;20378;-81
2020/12/26 02:22:51;;;;;;;;;;;4.30;79.30;;;;;;4719097;30;20021;-82
2020/12/26 02:25:16;;;;;;;;;;;4.40;79.30;;;;;;4704247;30;20009;-81
2020/12/26 02:27:42;;;;;;;;;;;4.40;79.40;;;;;;4719261;30;20001;-81
2020/12/26 02:30:07;;;;;;;;;;;4.40;79.30;;;;;;4704109;30;19973;-81
2020/12/26 02:32:33;;;;;;;;;;;4.40;79.30;;;;;;4719031;30;19922;-82
2020/12/26 02:34:58;;;;;;;;;;;4.40;79.40;;;;;;4703999;30;20477;-81
2020/12/26 02:37:24;;;;;;;;;;;4.40;79.50;;;;;;4718659;30;20021;-81
2020/12/26 02:39:50;;;;;;;;;;;4.30;80.00;;;;;;4719053;30;19927;-81
2020/12/26 02:42:16;;;;;;;;;;;4.40;80.30;;;;;;4718676;30;20009;-81
2020/12/26 02:44:41;;;;;;;;;;;4.30;80.50;;;;;;4734634;30;20013;-81
2020/12/26 02:47:07;;;;;;;;;;;4.30;81.20;;;;;;4718589;30;20005;-82
2020/12/26 02:49:32;;;;;;;;;;;4.30;81.50;;;;;;4704296;30;19919;-81
2020/12/26 02:51:58;;;;;;;;;;;4.30;82.00;;;;;;4703804;30;19927;-82
2020/12/26 02:54:24;;;;;;;;;;;4.40;82.00;;;;;;4703993;30;19930;-82
2020/12/26 02:56:49;;;;;;;;;;;4.40;82.30;;;;;;4718547;30;20000;-82
2020/12/26 02:59:15;;;;;;;;;;;4.40;82.60;;;;;;4734077;30;19984;-81
2020/12/26 03:01:40;;;;;;;;;;;4.40;82.90;;;;;;4704193;30;19918;-82
2020/12/26 03:04:06;;;;;;;;;;;4.40;83.00;;;;;;4703737;30;19918;-82
2020/12/26 03:06:31;;;;;;;;;;;4.40;82.80;;;;;;4703880;30;20357;-82
2020/12/26 03:08:57;;;;;;;;;;;4.40;82.90;;;;;;4718483;30;20036;-82
2020/12/26 03:11:23;;;;;;;;;;;4.40;82.70;;;;;;4703599;30;20370;-82
2020/12/26 03:13:48;;;;;;;;;;;4.40;82.90;;;;;;4718460;30;19922;-82
2020/12/26 03:16:14;;;;;;;;;;;4.50;83.10;;;;;;4717934;30;19975;-82
2020/12/26 03:18:39;;;;;;;;;;;4.50;83.20;;;;;;4734204;30;19922;-82
2020/12/26 03:21:05;;;;;;;;;;;4.50;83.20;;;;;;4703588;30;19918;-82
2020/12/26 03:23:30;;;;;;;;;;;4.50;83.20;;;;;;4717893;30;19945;-82
2020/12/26 03:25:56;;;;;;;;;;;4.50;83.10;;;;;;4718346;30;20341;-82
2020/12/26 03:28:22;;;;;;;;;;;4.50;82.90;;;;;;4717869;30;20388;-82
2020/12/26 03:30:47;;;;;;;;;;;4.50;83.10;;;;;;4718203;30;20297;-82
2020/12/26 03:33:12;;;;;;;;;;;4.50;83.20;;;;;;4732220;30;20281;-82
2020/12/26 03:35:38;;;;;;;;;;;4.60;83.40;;;;;;4703425;30;19930;-82
2020/12/26 03:38:03;;;;;;;;;;;4.60;83.20;;;;;;4717702;30;19949;-82
2020/12/26 03:40:29;;;;;;;;;;;4.60;83.00;;;;;;4732579;30;20035;-82
2020/12/26 03:42:54;;;;;;;;;;;4.60;82.80;;;;;;4733867;30;19930;-82
2020/12/26 03:45:21;;;;;;;;;;;4.70;82.70;;;;;;4717562;30;19919;-82
2020/12/26 03:47:47;;;;;;;;;;;4.70;82.50;;;;;;4718011;30;19919;-82
2020/12/26 03:50:12;;;;;;;;;;;4.70;82.40;;;;;;4717424;30;19949;-82
2020/12/26 03:52:38;;;;;;;;;;;4.70;82.20;;;;;;4733957;30;19921;-82
2020/12/26 03:55:03;;;;;;;;;;;4.70;82.10;;;;;;4755050;24;19995;-82
2020/12/26 03:57:29;;;;;;;;;;;4.70;82.10;;;;;;4736294;30;20261;-82
2020/12/26 03:59:54;;;;;;;;;;;4.70;82.00;;;;;;4735405;30;20336;-82
2020/12/26 04:02:20;;;;;;;;;;;4.70;81.90;;;;;;4720249;30;19926;-82
2020/12/26 04:04:45;;;;;;;;;;;4.80;81.90;;;;;;4735224;30;20012;-82
2020/12/26 04:07:11;;;;;;;;;;;4.80;81.80;;;;;;4732340;30;19933;-82
2020/12/26 04:09:36;;;;;;;;;;;4.80;81.80;;;;;;4752808;30;19937;-82
2020/12/26 04:12:02;;;;;;;;;;;4.80;81.70;;;;;;4752755;30;19925;-82
2020/12/26 04:14:27;;;;;;;;;;;4.80;81.60;;;;;;4752732;30;19982;-82
2020/12/26 04:17:02;;;;;;;;;;;4.80;81.60;;;;;;4737866;30;20385;-82
2020/12/26 04:19:27;;;;;;;;;;;4.90;81.60;;;;;;4752721;30;20327;-82
2020/12/26 04:21:54;;;;;;;;;;;4.90;81.50;;;;;;4768809;30;19918;-82
2020/12/26 04:24:19;;;;;;;;;;;4.90;81.50;;;;;;4737944;30;20032;-82
2020/12/26 04:26:45;;;;;;;;;;;4.90;81.40;;;;;;4752717;30;20009;-82
2020/12/26 04:29:10;;;;;;;;;;;4.90;81.40;;;;;;4752429;30;19922;-82
2020/12/26 04:31:36;;;;;;;;;;;4.90;81.40;;;;;;4738035;30;19918;-83
2020/12/26 04:34:02;;;;;;;;;;;4.90;81.30;;;;;;4752468;30;20229;-82
2020/12/26 04:36:27;;;;;;;;;;;4.90;81.20;;;;;;4761733;30;20012;-82
2020/12/26 04:38:53;;;;;;;;;;;4.90;81.20;;;;;;4756117;30;19958;-83
2020/12/26 04:41:19;;;;;;;;;;;4.90;81.20;;;;;;4740963;30;19918;-82
2020/12/26 04:43:45;;;;;;;;;;;4.90;81.20;;;;;;4755947;30;19914;-82
2020/12/26 04:46:13;;;;;;;;;;;4.90;81.10;;;;;;4755055;30;20521;-83
2020/12/26 04:48:43;;;;;;;;;;;4.90;81.10;;;;;;4755929;30;20379;-82
2020/12/26 04:51:10;;;;;;;;;;;4.90;81.00;;;;;;4755571;30;19914;-82
2020/12/26 04:53:42;;;;;;;;;;;4.90;81.00;;;;;;4755454;30;19928;-82
2020/12/26 04:56:07;;;;;;;;;;;4.90;81.00;;;;;;4755437;30;20453;-82
2020/12/26 04:58:34;;;;;;;;;;;4.90;81.00;;;;;;4771752;30;19918;-82
2020/12/26 05:01:00;;;;;;;;;;;4.90;81.00;;;;;;4755620;30;19921;-82
2020/12/26 05:03:27;;;;;;;;;;;4.90;80.90;;;;;;4771432;30;19917;-82
2020/12/26 05:05:59;;;;;;;;;;;4.90;80.90;;;;;;4771464;30;19913;-83
2020/12/26 05:08:24;;;;;;;;;;;4.90;80.90;;;;;;4755243;30;19967;-82
2020/12/26 05:10:50;;;;;;;;;;;4.90;81.50;;;;;;4740699;30;19926;-82
2020/12/26 05:13:15;;;;;;;;;;;4.90;80.80;;;;;;4740302;30;19921;-82
2020/12/26 05:15:41;;;;;;;;;;;4.90;80.80;;;;;;4755410;30;20373;-82
2020/12/26 05:18:06;;;;;;;;;;;4.90;80.80;;;;;;4737609;30;19929;-82
2020/12/26 05:20:32;;;;;;;;;;;4.90;80.80;;;;;;4723131;30;19926;-82
2020/12/26 05:23:17;;;;;;;;;;;4.90;80.80;;;;;;4723113;30;19919;-82
2020/12/26 05:25:46;;;;;;;;;;;4.90;80.80;;;;;;4737567;30;20045;-82
2020/12/26 05:28:13;;;;;;;;;;;4.80;80.70;;;;;;4722700;30;19964;-82
2020/12/26 05:30:39;;;;;;;;;;;4.80;80.70;;;;;;4722944;30;20065;-82
2020/12/26 05:33:05;;;;;;;;;;;4.80;80.70;;;;;;4723013;30;19918;-83
2020/12/26 05:35:35;;;;;;;;;;;4.80;80.60;;;;;;4747845;30;19965;-82
2020/12/26 05:38:11;;;;;;;;;;;4.80;80.70;;;;;;4737430;30;20009;-81
2020/12/26 05:40:40;;;;;;;;;;;4.80;80.60;;;;;;4737379;30;19914;-82
2020/12/26 05:43:06;;;;;;;;;;;4.70;80.60;;;;;;4753254;30;19914;-82
2020/12/26 05:45:37;;;;;;;;;;;4.70;80.50;;;;;;4725404;30;19922;-81
2020/12/26 05:48:07;;;;;;;;;;;4.70;80.50;;;;;;4752039;30;19926;-81
2020/12/26 05:50:32;;;;;;;;;;;4.70;80.50;;;;;;4753171;30;20390;-81
2020/12/26 05:52:58;;;;;;;;;;;4.70;80.50;;;;;;4738880;30;20012;-82
2020/12/26 05:55:24;;;;;;;;;;;4.70;80.50;;;;;;4736808;30;19988;-81
2020/12/26 05:57:53;;;;;;;;;;;4.70;80.50;;;;;;4753363;30;20372;-81
2020/12/26 06:00:29;;;;;;;;;;;4.60;80.50;;;;;;4752880;30;20016;-81
2020/12/26 06:02:55;;;;;;;;;;;4.60;80.50;;;;;;4753441;30;19914;-81
2020/12/26 06:05:21;;;;;;;;;;;4.60;80.50;;;;;;4734850;30;20416;-81
2020/12/26 06:07:47;;;;;;;;;;;4.60;80.50;;;;;;4723787;30;19922;-81
2020/12/26 06:10:13;;;;;;;;;;;4.60;80.50;;;;;;4721845;30;19923;-81
2020/12/26 06:12:38;;;;;;;;;;;4.60;80.50;;;;;;4736916;30;19918;-81
2020/12/26 06:15:04;;;;;;;;;;;4.60;80.50;;;;;;4752882;30;19919;-82
2020/12/26 06:17:30;;;;;;;;;;;4.60;80.60;;;;;;4753568;30;20258;-82
2020/12/26 06:19:56;;;;;;;;;;;4.50;80.50;;;;;;4738049;30;20258;-81
2020/12/26 06:22:21;;;;;;;;;;;4.50;80.50;;;;;;4748748;30;19920;-81
2020/12/26 06:24:47;;;;;;;;;;;4.50;80.50;;;;;;4743890;30;19921;-81
2020/12/26 06:27:14;;;;;;;;;;;4.50;80.50;;;;;;4769508;30;19914;-81
2020/12/26 06:29:43;;;;;;;;;;;4.50;80.50;;;;;;4739537;30;19921;-81
2020/12/26 06:32:09;;;;;;;;;;;4.50;80.50;;;;;;4769816;30;20008;-81
2020/12/26 06:34:36;;;;;;;;;;;4.50;80.60;;;;;;4769910;30;20322;-81
2020/12/26 06:37:01;;;;;;;;;;;4.40;80.50;;;;;;4751860;30;19933;-81
2020/12/26 06:39:31;;;;;;;;;;;4.40;80.50;;;;;;4752125;30;19925;-81
2020/12/26 06:42:12;;;;;;;;;;;4.40;80.50;;;;;;4736213;30;19918;-81
2020/12/26 06:44:38;;;;;;;;;;;4.40;80.50;;;;;;4762576;30;19922;-81
2020/12/26 06:47:03;;;;;;;;;;;4.40;80.50;;;;;;4753240;30;20365;-81
2020/12/26 06:49:29;;;;;;;;;;;4.40;80.50;;;;;;4753600;30;20335;-81
2020/12/26 06:51:55;;;;;;;;;;;4.40;80.50;;;;;;4769911;30;19914;-81
2020/12/26 06:54:37;;;;;;;;;;;4.30;80.50;;;;;;4753029;30;20432;-81
2020/12/26 06:57:03;;;;;;;;;;;4.30;80.60;;;;;;4753318;30;19926;-81
2020/12/26 06:59:32;;;;;;;;;;;4.30;80.60;;;;;;4753139;30;19974;-81
2020/12/26 07:02:05;;;;;;;;;;;4.30;80.70;;;;;;4753800;30;20301;-81
2020/12/26 07:04:37;;;;;;;;;;;4.30;80.60;;;;;;4752617;30;20346;-81
2020/12/26 07:07:03;;;;;;;;;;;4.30;80.70;;;;;;4748106;30;20712;-81
2020/12/26 07:09:35;;;;;;;;;;;4.20;80.60;;;;;;4740891;30;19922;-81
2020/12/26 07:12:00;;;;;;;;;;;4.20;80.60;;;;;;4756050;30;19995;-81
2020/12/26 07:14:40;;;;;;;;;;;4.20;80.60;;;;;;4737585;30;20350;-82
2020/12/26 07:17:14;;;;;;;;;;;4.20;80.60;;;;;;4746952;30;20301;-81
2020/12/26 07:19:53;;;;;;;;;;;4.20;80.60;;;;;;4735794;30;19918;-81
2020/12/26 07:22:21;;;;;;;;;;;4.20;80.70;;;;;;4751410;30;19922;-81
2020/12/26 07:24:48;;;;;;;;;;;4.20;80.70;;;;;;4740081;30;19923;-81
2020/12/26 07:27:21;;;;;;;;;;;4.10;80.70;;;;;;4760742;30;19917;-82
2020/12/26 07:29:47;;;;;;;;;;;4.10;80.80;;;;;;4768918;30;19990;-83
2020/12/26 07:32:32;;;;;;;;;;;4.10;80.80;;;;;;4753296;30;19922;-82
2020/12/26 07:34:58;;;;;;;;;;;4.10;80.80;;;;;;4762270;30;20259;-82
2020/12/26 07:37:26;;;;;;;;;;;4.10;80.80;;;;;;4769708;30;19921;-83
2020/12/26 07:39:52;;;;;;;;;;;4.10;80.80;;;;;;4753953;30;19922;-82
2020/12/26 07:42:17;;;;;;;;;;;4.10;80.80;;;;;;4746977;30;19976;-82
2020/12/26 07:44:43;;;;;;;;;;;4.10;80.80;;;;;;4754685;30;19922;-82
2020/12/26 07:47:09;;;;;;;;;;;4.10;80.80;;;;;;4768922;30;19914;-82
2020/12/26 07:49:34;;;;;;;;;;;4.10;80.80;;;;;;4738867;30;19918;-82
2020/12/26 07:52:01;;;;;;;;;;;4.10;80.90;;;;;;4753295;30;20005;-82
2020/12/26 07:54:26;;;;;;;;;;;4.00;80.90;;;;;;4738315;30;20305;-82
2020/12/26 07:56:53;;;;;;;;;;;4.00;80.90;;;;;;4738802;30;19926;-82
2020/12/26 07:59:20;;;;;;;;;;;4.00;80.90;;;;;;4763455;30;19918;-82
2020/12/26 08:01:48;;;;;;;;;;;4.00;80.90;;;;;;4747615;30;19971;-82
2020/12/26 08:04:13;;;;;;;;;;;4.00;80.90;;;;;;4769526;30;20369;-82
2020/12/26 08:06:39;;;;;;;;;;;4.00;80.90;;;;;;4753555;30;19953;-82
2020/12/26 08:09:05;;;;;;;;;;;4.00;80.90;;;;;;4754265;30;19954;-82
2020/12/26 08:11:31;;;;;;;;;;;4.00;80.90;;;;;;4772830;30;19922;-81
2020/12/26 08:14:00;;;;;;;;;;;4.00;81.00;;;;;;4757114;30;19925;-81
2020/12/26 08:16:29;;;;;;;;;;;4.00;81.00;;;;;;4744110;30;19923;-82
2020/12/26 08:18:55;;;;;;;;;;;4.00;81.10;;;;;;4748905;30;19973;-82
2020/12/26 08:21:21;;;;;;;;;;;4.00;81.00;;;;;;4765700;30;19976;-82
2020/12/26 08:23:57;;;;;;;;;;;4.00;81.10;;;;;;4742337;30;19929;-82
2020/12/26 08:26:23;;;;;;;;;;;4.10;81.10;;;;;;4748901;30;20008;-82
2020/12/26 08:28:49;;;;;;;;;;;4.10;81.20;;;;;;4728150;30;20395;-82
2020/12/26 08:31:18;;;;;;;;;;;4.10;81.20;;;;;;4754421;30;20009;-81
2020/12/26 08:33:47;;;;;;;;;;;4.10;81.20;;;;;;4756069;30;19921;-83
2020/12/26 08:36:23;;;;;;;;;;;4.10;81.20;;;;;;4768989;30;19974;-82
2020/12/26 08:38:53;;;;;;;;;;;4.10;81.30;;;;;;4772903;30;19914;-81
2020/12/26 08:41:19;;;;;;;;;;;4.10;81.30;;;;;;4767736;30;20393;-82
2020/12/26 08:43:45;;;;;;;;;;;4.10;81.20;;;;;;4757662;30;19947;-84
2020/12/26 08:46:11;;;;;;;;;;;4.10;81.20;;;;;;4756741;30;19918;-83
2020/12/26 08:48:37;;;;;;;;;;;4.10;81.30;;;;;;4760578;30;20289;-81
2020/12/26 08:51:03;;;;;;;;;;;4.10;81.30;;;;;;4771206;30;20425;-82
2020/12/26 08:53:28;;;;;;;;;;;4.20;81.40;;;;;;4769936;30;20147;-81
2020/12/26 08:55:55;;;;;;;;;;;4.20;81.30;;;;;;4739321;30;20385;-81
2020/12/26 08:58:24;;;;;;;;;;;4.20;81.30;;;;;;4740737;30;19922;-83
2020/12/26 09:00:50;;;;;;;;;;;4.20;81.40;;;;;;4755964;30;19917;-81
2020/12/26 09:03:25;;;;;;;;;;;4.20;81.60;;;;;;4754601;30;20258;-82
2020/12/26 09:05:51;;;;;;;;;;;4.20;81.70;;;;;;4755673;30;19929;-82
2020/12/26 09:08:18;;;;;;;;;;;4.20;81.70;;;;;;4755432;30;19971;-81
2020/12/26 09:10:54;;;;;;;;;;;4.20;81.70;;;;;;4755714;30;20366;-83
2020/12/26 09:13:19;;;;;;;;;;;4.30;81.70;;;;;;4755195;30;19936;-82
2020/12/26 09:15:51;;;;;;;;;;;4.30;81.80;;;;;;4767435;30;20373;-81
2020/12/26 09:18:20;;;;;;;;;;;4.30;81.80;;;;;;4761783;30;19926;-83
2020/12/26 09:20:56;;;;;;;;;;;4.30;81.80;;;;;;4765746;30;19922;-83
2020/12/26 09:23:22;;;;;;;;;;;4.30;81.80;;;;;;4758363;30;20021;-81
2020/12/26 09:25:48;;;;;;;;;;;4.30;81.70;;;;;;4755069;30;19918;-81
2020/12/26 09:28:14;;;;;;;;;;;4.30;81.70;;;;;;4755508;30;19925;-82
2020/12/26 09:30:39;;;;;;;;;;;4.40;82.10;;;;;;4755335;30;19924;-82
2020/12/26 09:33:05;;;;;;;;;;;4.40;81.90;;;;;;4771620;30;20381;-82
2020/12/26 09:35:34;;;;;;;;;;;4.40;82.10;;;;;;4755452;30;20409;-83
2020/12/26 09:37:59;;;;;;;;;;;4.40;82.10;;;;;;4756297;30;19922;-83
2020/12/26 09:40:29;;;;;;;;;;;4.40;82.30;;;;;;4771787;30;20387;-83
2020/12/26 09:42:54;;;;;;;;;;;4.40;81.90;;;;;;4766993;30;20383;-84
2020/12/26 09:45:20;;;;;;;;;;;4.50;81.90;;;;;;4727047;30;20012;-84
2020/12/26 09:47:46;;;;;;;;;;;4.50;81.90;;;;;;4750088;30;19929;-84
2020/12/26 09:50:11;;;;;;;;;;;4.50;81.80;;;;;;4758219;30;19929;-84
2020/12/26 09:52:38;;;;;;;;;;;4.60;81.80;;;;;;4770830;30;19972;-84
2020/12/26 09:55:07;;;;;;;;;;;4.60;81.70;;;;;;4749124;24;19941;-84
2020/12/26 09:57:33;;;;;;;;;;;4.60;81.60;;;;;;4741085;30;20722;-84
2020/12/26 09:59:58;;;;;;;;;;;4.60;81.50;;;;;;4771751;30;19914;-84
2020/12/26 10:02:24;;;;;;;;;;;4.70;81.60;;;;;;4771536;30;20284;-84
2020/12/26 10:04:50;;;;;;;;;;;4.70;81.50;;;;;;4755665;30;19973;-84
2020/12/26 10:07:17;;;;;;;;;;;4.70;81.50;;;;;;4755147;30;20001;-84
2020/12/26 10:09:43;;;;;;;;;;;4.80;81.50;;;;;;4750960;30;19925;-84
2020/12/26 10:12:08;;;;;;;;;;;4.80;81.60;;;;;;4740907;30;20305;-84
2020/12/26 10:14:34;;;;;;;;;;;4.80;81.50;;;;;;4737532;30;19976;-84
2020/12/26 10:16:59;;;;;;;;;;;4.80;81.50;;;;;;4736640;30;20386;-84
2020/12/26 10:19:25;;;;;;;;;;;4.80;81.50;;;;;;4745791;30;19925;-84
2020/12/26 10:21:51;;;;;;;;;;;4.90;81.50;;;;;;4730018;30;20242;-84
2020/12/26 10:24:16;;;;;;;;;;;4.90;81.50;;;;;;4770866;30;19926;-83
2020/12/26 10:26:42;;;;;;;;;;;4.90;81.50;;;;;;4770939;30;19918;-84
2020/12/26 10:29:08;;;;;;;;;;;5.00;81.50;;;;;;4755123;30;19961;-84
2020/12/26 10:31:34;;;;;;;;;;;5.00;81.50;;;;;;4754505;30;19971;-84
2020/12/26 10:33:59;;;;;;;;;;;5.00;81.40;;;;;;4754775;30;20262;-84
2020/12/26 10:36:25;;;;;;;;;;;5.00;81.30;;;;;;4739686;30;19975;-84
2020/12/26 10:38:50;;;;;;;;;;;5.10;81.30;;;;;;4754993;30;19922;-84
2020/12/26 10:41:16;;;;;;;;;;;5.10;81.30;;;;;;4754508;30;19918;-84
2020/12/26 10:43:41;;;;;;;;;;;5.20;81.20;;;;;;4743322;30;19965;-84
2020/12/26 10:46:07;;;;;;;;;;;5.20;81.10;;;;;;4745104;30;20377;-84
2020/12/26 10:48:32;;;;;;;;;;;5.30;81.10;;;;;;4754595;30;19921;-84
2020/12/26 10:50:58;;;;;;;;;;;5.30;81.10;;;;;;4754708;30;19925;-84
2020/12/26 10:53:23;;;;;;;;;;;5.40;81.00;;;;;;4739716;30;19925;-84
2020/12/26 10:55:49;;;;;;;;;;;5.40;81.00;;;;;;4740151;30;20354;-84
2020/12/26 10:58:14;;;;;;;;;;;5.40;80.90;;;;;;4739774;30;19957;-84
2020/12/26 11:00:40;;;;;;;;;;;5.50;80.80;;;;;;4739908;30;19960;-84
2020/12/26 11:03:05;;;;;;;;;;;5.60;80.90;;;;;;4739935;30;20318;-84
2020/12/26 11:05:31;;;;;;;;;;;5.60;80.80;;;;;;4754351;30;20499;-84
2020/12/26 11:07:56;;;;;;;;;;;5.70;80.70;;;;;;4754478;30;19914;-84
2020/12/26 11:10:22;;;;;;;;;;;5.70;80.60;;;;;;4754488;30;19925;-84
2020/12/26 11:12:47;;;;;;;;;;;5.80;80.70;;;;;;4754541;30;20266;-84
2020/12/26 11:15:13;;;;;;;;;;;5.80;80.60;;;;;;4751291;30;19924;-84
2020/12/26 11:17:38;;;;;;;;;;;5.90;80.60;;;;;;4738672;30;20016;-84
2020/12/26 11:20:04;;;;;;;;;;;5.90;80.50;;;;;;4736757;30;19925;-84
2020/12/26 11:22:29;;;;;;;;;;;6.00;80.40;;;;;;4735757;30;20356;-84
2020/12/26 11:24:55;;;;;;;;;;;6.00;80.30;;;;;;4751669;30;19927;-84
2020/12/26 11:27:20;;;;;;;;;;;6.10;80.40;;;;;;4721582;30;20340;-84
2020/12/26 11:29:46;;;;;;;;;;;6.10;80.30;;;;;;4736844;30;19919;-84
2020/12/26 11:32:11;;;;;;;;;;;6.20;80.30;;;;;;4736743;30;19949;-84
2020/12/26 11:34:37;;;;;;;;;;;6.20;80.20;;;;;;4721912;30;19919;-84
2020/12/26 11:37:07;;;;;;;;;;;6.30;80.10;;;;;;4752470;30;19949;-84
2020/12/26 11:39:33;;;;;;;;;;;6.30;79.90;;;;;;4736444;30;20400;-84
2020/12/26 11:41:58;;;;;;;;;;;6.30;79.80;;;;;;4736782;30;19922;-84
2020/12/26 11:44:24;;;;;;;;;;;6.40;79.90;;;;;;4736437;30;20023;-84
2020/12/26 11:46:49;;;;;;;;;;;6.40;79.80;;;;;;4736440;30;20384;-85
2020/12/26 11:49:15;;;;;;;;;;;6.50;79.80;;;;;;4721922;30;19919;-84
2020/12/26 11:51:40;;;;;;;;;;;6.50;79.70;;;;;;4721755;30;20289;-84
2020/12/26 11:54:06;;;;;;;;;;;6.50;79.70;;;;;;4743662;30;20304;-84
2020/12/26 11:56:31;;;;;;;;;;;6.60;79.70;;;;;;4739304;30;19922;-85
2020/12/26 11:58:57;;;;;;;;;;;6.60;79.60;;;;;;4739424;30;19925;-84
2020/12/26 12:01:23;;;;;;;;;;;6.60;79.50;;;;;;4739112;30;20079;-85
2020/12/26 12:03:48;;;;;;;;;;;6.70;79.50;;;;;;4739157;30;19965;-84
2020/12/26 12:06:14;;;;;;;;;;;6.70;79.50;;;;;;4739426;30;19929;-84
2020/12/26 12:08:40;;;;;;;;;;;6.70;79.40;;;;;;4739083;30;19918;-84
2020/12/26 12:11:05;;;;;;;;;;;6.70;79.40;;;;;;4750285;30;19915;-84
2020/12/26 12:13:31;;;;;;;;;;;6.80;79.30;;;;;;4752093;30;19980;-84
2020/12/26 12:15:56;;;;;;;;;;;6.80;79.20;;;;;;4736282;30;19926;-84
2020/12/26 12:18:22;;;;;;;;;;;6.80;79.30;;;;;;4721488;30;20289;-84
2020/12/26 12:20:47;;;;;;;;;;;6.80;79.20;;;;;;4736339;30;19923;-84
2020/12/26 12:23:13;;;;;;;;;;;6.80;79.20;;;;;;4736289;30;19995;-83
2020/12/26 12:25:38;;;;;;;;;;;6.90;79.20;;;;;;4736173;30;19925;-84
2020/12/26 12:28:04;;;;;;;;;;;6.90;79.00;;;;;;4736292;30;19918;-84
2020/12/26 12:30:29;;;;;;;;;;;6.90;79.00;;;;;;4763713;30;20389;-84
2020/12/26 12:32:55;;;;;;;;;;;6.90;79.00;;;;;;4753795;30;20005;-84
2020/12/26 12:35:21;;;;;;;;;;;6.90;79.00;;;;;;4737958;30;19926;-84
2020/12/26 12:37:49;;;;;;;;;;;6.90;79.00;;;;;;4753723;30;19940;-84
2020/12/26 12:40:15;;;;;;;;;;;6.90;78.90;;;;;;4753519;30;20016;-84
2020/12/26 12:42:41;;;;;;;;;;;6.90;78.80;;;;;;4753379;30;20017;-84
2020/12/26 12:45:06;;;;;;;;;;;6.90;78.90;;;;;;4738799;30;19918;-84
2020/12/26 12:47:32;;;;;;;;;;;6.90;78.80;;;;;;4753376;30;19914;-84
2020/12/26 12:49:57;;;;;;;;;;;6.90;78.80;;;;;;4753352;30;19918;-84
2020/12/26 12:52:23;;;;;;;;;;;7.00;78.90;;;;;;4753292;30;19921;-84
2020/12/26 12:54:48;;;;;;;;;;;7.00;78.80;;;;;;4750028;30;19938;-85
2020/12/26 12:57:14;;;;;;;;;;;7.00;78.80;;;;;;4761980;30;20024;-85
2020/12/26 12:59:40;;;;;;;;;;;7.00;78.70;;;;;;4756461;30;19976;-84
2020/12/26 13:02:06;;;;;;;;;;;7.00;78.70;;;;;;4739437;30;19971;-84
2020/12/26 13:04:31;;;;;;;;;;;7.00;78.60;;;;;;4738768;30;19987;-84
2020/12/26 13:06:57;;;;;;;;;;;7.00;78.60;;;;;;4748486;30;20298;-84
2020/12/26 13:09:22;;;;;;;;;;;7.00;78.60;;;;;;4726122;30;19965;-84
2020/12/26 13:11:48;;;;;;;;;;;7.00;78.60;;;;;;4738659;30;19965;-84
2020/12/26 13:14:13;;;;;;;;;;;7.10;78.70;;;;;;4759625;30;19920;-84
2020/12/26 13:16:39;;;;;;;;;;;7.10;78.60;;;;;;4772278;30;19922;-84
2020/12/26 13:19:05;;;;;;;;;;;7.00;78.40;;;;;;4772425;30;19918;-84
2020/12/26 13:21:30;;;;;;;;;;;7.00;78.50;;;;;;4772271;30;19944;-84
2020/12/26 13:23:56;;;;;;;;;;;7.10;78.50;;;;;;4756522;30;20005;-84
2020/12/26 13:26:22;;;;;;;;;;;7.00;78.40;;;;;;4756230;30;19991;-84
2020/12/26 13:28:48;;;;;;;;;;;7.00;78.30;;;;;;4755990;30;19926;-84
2020/12/26 13:31:14;;;;;;;;;;;7.00;78.40;;;;;;4756107;30;20296;-84
2020/12/26 13:33:42;;;;;;;;;;;7.10;78.40;;;;;;4755337;30;19918;-84
2020/12/26 13:36:08;;;;;;;;;;;7.10;78.40;;;;;;4747436;30;19918;-84
2020/12/26 13:38:33;;;;;;;;;;;7.00;78.20;;;;;;4723465;30;19981;-84
2020/12/26 13:40:59;;;;;;;;;;;7.00;78.10;;;;;;4723550;30;20032;-84
2020/12/26 13:43:25;;;;;;;;;;;7.00;78.20;;;;;;4739043;30;19926;-84
2020/12/26 13:45:59;;;;;;;;;;;7.10;78.30;;;;;;4738076;30;19915;-84
2020/12/26 13:48:25;;;;;;;;;;;7.10;78.30;;;;;;4747341;30;20018;-84
2020/12/26 13:50:51;;;;;;;;;;;7.00;78.30;;;;;;4755951;30;19930;-85
2020/12/26 13:53:16;;;;;;;;;;;7.10;78.30;;;;;;4740838;30;20369;-84
2020/12/26 13:55:42;;;;;;;;;;;7.10;78.30;;;;;;4771556;30;19974;-84
2020/12/26 13:58:07;;;;;;;;;;;7.10;78.30;;;;;;4771562;30;20285;-84
2020/12/26 14:00:33;;;;;;;;;;;7.10;78.10;;;;;;4741017;30;19921;-84
2020/12/26 14:02:58;;;;;;;;;;;7.10;78.20;;;;;;4755514;30;19925;-84
2020/12/26 14:05:24;;;;;;;;;;;7.10;78.20;;;;;;4754809;30;19921;-84
2020/12/26 14:07:49;;;;;;;;;;;7.10;78.30;;;;;;4730243;30;19918;-84
2020/12/26 14:10:15;;;;;;;;;;;7.00;78.20;;;;;;4741159;30;20006;-85
2020/12/26 14:12:40;;;;;;;;;;;7.00;78.30;;;;;;4755387;30;20369;-84
2020/12/26 14:15:06;;;;;;;;;;;7.10;78.30;;;;;;4754479;30;19949;-84
2020/12/26 14:17:32;;;;;;;;;;;7.10;78.40;;;;;;4746542;30;20385;-84
2020/12/26 14:19:57;;;;;;;;;;;7.10;78.30;;;;;;4755400;30;19917;-84
2020/12/26 14:22:22;;;;;;;;;;;7.00;78.30;;;;;;4755494;30;19917;-84
2020/12/26 14:24:48;;;;;;;;;;;7.10;78.40;;;;;;4740670;30;20419;-84
2020/12/26 14:27:13;;;;;;;;;;;7.10;78.40;;;;;;4754913;30;20074;-84